sensor_id;sensor_type;location;lat;lon;timestamp;pressure;altitude;pressure_sealevel;temperature;humidity
70437;BME280;57877;39.750;-104.894;2023-04-03T00:00:43;82410.26;;;20.51;5.71
70437;BME280;57877;39.750;-104.894;2023-04-03T00:03:09;82413.14;;;19.51;6.01
70437;BME280;57877;39.750;-104.894;2023-04-03T00:05:35;82418.37;;;19.57;6.13
70437;BME280;57877;39.750;-104.894;2023-04-03T00:08:02;82418.47;;;18.73;6.50
70437;BME280;57877;39.750;-104.894;2023-04-03T00:10:28;82421.25;;;19.23;6.50
70437;BME280;57877;39.750;-104.894;2023-04-03T00:12:53;82418.78;;;19.82;6.09
70437;BME280;57877;39.750;-104.894;2023-04-03T00:15:19;82418.41;;;20.06;6.06
70437;BME280;57877;39.750;-104.894;2023-04-03T00:17:45;82419.00;;;18.53;6.49
70437;BME280;57877;39.750;-104.894;2023-04-03T00:20:11;82425.46;;;18.10;7.02
70437;BME280;57877;39.750;-104.894;2023-04-03T00:22:37;82427.60;;;18.34;6.91
70437;BME280;57877;39.750;-104.894;2023-04-03T00:25:03;82430.58;;;19.06;6.61
70437;BME280;57877;39.750;-104.894;2023-04-03T00:27:29;82429.01;;;18.01;6.97
70437;BME280;57877;39.750;-104.894;2023-04-03T00:29:55;82427.98;;;17.88;7.10
70437;BME280;57877;39.750;-104.894;2023-04-03T00:32:21;82430.02;;;18.19;6.99
70437;BME280;57877;39.750;-104.894;2023-04-03T00:34:47;82438.50;;;18.16;7.01
70437;BME280;57877;39.750;-104.894;2023-04-03T00:37:13;82440.31;;;16.68;7.57
70437;BME280;57877;39.750;-104.894;2023-04-03T00:39:39;82445.12;;;17.55;7.34
70437;BME280;57877;39.750;-104.894;2023-04-03T00:42:05;82450.61;;;18.25;7.09
70437;BME280;57877;39.750;-104.894;2023-04-03T00:46:57;82451.94;;;17.25;7.67
70437;BME280;57877;39.750;-104.894;2023-04-03T00:49:23;82455.37;;;17.62;7.46
70437;BME280;57877;39.750;-104.894;2023-04-03T00:51:49;82453.75;;;16.92;7.74
70437;BME280;57877;39.750;-104.894;2023-04-03T00:54:15;82451.38;;;16.94;7.75
70437;BME280;57877;39.750;-104.894;2023-04-03T00:56:41;82455.06;;;17.42;7.60
70437;BME280;57877;39.750;-104.894;2023-04-03T00:59:11;82460.81;;;17.40;7.60
70437;BME280;57877;39.750;-104.894;2023-04-03T01:01:33;82458.07;;;16.72;7.98
70437;BME280;57877;39.750;-104.894;2023-04-03T01:04:03;82460.47;;;17.49;7.54
70437;BME280;57877;39.750;-104.894;2023-04-03T01:06:27;82466.82;;;17.37;7.57
70437;BME280;57877;39.750;-104.894;2023-04-03T01:08:51;82468.51;;;17.43;7.75
70437;BME280;57877;39.750;-104.894;2023-04-03T01:11:17;82470.07;;;16.96;7.89
70437;BME280;57877;39.750;-104.894;2023-04-03T01:13:43;82473.36;;;17.19;7.80
70437;BME280;57877;39.750;-104.894;2023-04-03T01:16:09;82476.32;;;16.65;8.10
70437;BME280;57877;39.750;-104.894;2023-04-03T01:18:37;82475.60;;;17.84;7.78
70437;BME280;57877;39.750;-104.894;2023-04-03T01:21:09;82480.29;;;17.44;7.78
70437;BME280;57877;39.750;-104.894;2023-04-03T01:23:41;82480.00;;;17.14;7.94
70437;BME280;57877;39.750;-104.894;2023-04-03T01:25:55;82485.24;;;17.52;7.72
70437;BME280;57877;39.750;-104.894;2023-04-03T01:28:21;82489.33;;;17.54;7.84
70437;BME280;57877;39.750;-104.894;2023-04-03T01:30:46;82489.06;;;16.88;8.85
70437;BME280;57877;39.750;-104.894;2023-04-03T01:33:10;82491.38;;;16.82;8.79
70437;BME280;57877;39.750;-104.894;2023-04-03T01:35:36;82489.85;;;16.85;8.21
70437;BME280;57877;39.750;-104.894;2023-04-03T01:38:02;82493.78;;;16.59;8.48
70437;BME280;57877;39.750;-104.894;2023-04-03T01:40:28;82496.40;;;17.02;8.36
70437;BME280;57877;39.750;-104.894;2023-04-03T01:42:54;82494.81;;;16.87;8.41
70437;BME280;57877;39.750;-104.894;2023-04-03T01:45:20;82494.20;;;16.38;8.64
70437;BME280;57877;39.750;-104.894;2023-04-03T01:47:46;82500.34;;;16.09;8.72
70437;BME280;57877;39.750;-104.894;2023-04-03T01:50:12;82503.53;;;15.74;8.97
70437;BME280;57877;39.750;-104.894;2023-04-03T01:52:38;82511.12;;;16.09;8.88
70437;BME280;57877;39.750;-104.894;2023-04-03T01:55:05;82512.08;;;15.96;9.30
70437;BME280;57877;39.750;-104.894;2023-04-03T01:57:30;82520.22;;;15.99;9.51
70437;BME280;57877;39.750;-104.894;2023-04-03T01:59:56;82525.98;;;15.44;9.90
70437;BME280;57877;39.750;-104.894;2023-04-03T02:02:22;82528.42;;;15.93;9.64
70437;BME280;57877;39.750;-104.894;2023-04-03T02:04:48;82532.84;;;15.76;9.63
70437;BME280;57877;39.750;-104.894;2023-04-03T02:07:14;82539.59;;;16.86;9.22
70437;BME280;57877;39.750;-104.894;2023-04-03T02:09:40;82545.10;;;16.55;9.33
70437;BME280;57877;39.750;-104.894;2023-04-03T02:12:06;82553.35;;;16.38;9.32
70437;BME280;57877;39.750;-104.894;2023-04-03T02:14:33;82557.04;;;16.87;9.23
70437;BME280;57877;39.750;-104.894;2023-04-03T02:16:59;82563.10;;;17.23;9.30
70437;BME280;57877;39.750;-104.894;2023-04-03T02:19:24;82567.82;;;16.81;9.49
70437;BME280;57877;39.750;-104.894;2023-04-03T02:21:50;82574.93;;;16.05;10.02
70437;BME280;57877;39.750;-104.894;2023-04-03T02:24:21;82586.79;;;15.89;10.21
70437;BME280;57877;39.750;-104.894;2023-04-03T02:26:42;82591.85;;;15.60;10.83
70437;BME280;57877;39.750;-104.894;2023-04-03T02:29:08;82597.71;;;14.61;11.46
70437;BME280;57877;39.750;-104.894;2023-04-03T02:31:34;82604.07;;;13.08;12.73
70437;BME280;57877;39.750;-104.894;2023-04-03T02:34:00;82618.98;;;12.40;15.16
70437;BME280;57877;39.750;-104.894;2023-04-03T02:36:26;82624.82;;;11.59;18.56
70437;BME280;57877;39.750;-104.894;2023-04-03T02:38:52;82632.50;;;12.09;19.66
70437;BME280;57877;39.750;-104.894;2023-04-03T02:41:18;82634.90;;;11.69;21.11
70437;BME280;57877;39.750;-104.894;2023-04-03T02:43:44;82632.63;;;11.38;22.90
70437;BME280;57877;39.750;-104.894;2023-04-03T02:46:10;82642.80;;;11.08;23.98
70437;BME280;57877;39.750;-104.894;2023-04-03T02:48:41;82648.56;;;10.58;24.90
70437;BME280;57877;39.750;-104.894;2023-04-03T02:51:02;82655.48;;;10.34;25.87
70437;BME280;57877;39.750;-104.894;2023-04-03T02:53:28;82653.24;;;10.73;26.08
70437;BME280;57877;39.750;-104.894;2023-04-03T02:55:58;82663.01;;;10.61;26.81
70437;BME280;57877;39.750;-104.894;2023-04-03T02:58:18;82660.38;;;10.07;28.00
70437;BME280;57877;39.750;-104.894;2023-04-03T03:00:45;82666.32;;;10.25;27.77
70437;BME280;57877;39.750;-104.894;2023-04-03T03:03:10;82671.41;;;9.61;29.02
70437;BME280;57877;39.750;-104.894;2023-04-03T03:05:37;82684.89;;;9.82;28.74
70437;BME280;57877;39.750;-104.894;2023-04-03T03:08:03;82699.62;;;10.06;28.57
70437;BME280;57877;39.750;-104.894;2023-04-03T03:10:28;82712.51;;;10.16;28.57
70437;BME280;57877;39.750;-104.894;2023-04-03T03:12:54;82712.82;;;10.07;28.73
70437;BME280;57877;39.750;-104.894;2023-04-03T03:15:20;82706.01;;;9.74;29.08
70437;BME280;57877;39.750;-104.894;2023-04-03T03:17:47;82700.45;;;10.48;28.37
70437;BME280;57877;39.750;-104.894;2023-04-03T03:20:13;82699.02;;;9.89;29.37
70437;BME280;57877;39.750;-104.894;2023-04-03T03:22:38;82706.16;;;9.15;30.04
70437;BME280;57877;39.750;-104.894;2023-04-03T03:25:05;82716.94;;;9.92;29.18
70437;BME280;57877;39.750;-104.894;2023-04-03T03:27:30;82716.68;;;9.84;29.40
70437;BME280;57877;39.750;-104.894;2023-04-03T03:29:56;82720.61;;;9.44;29.87
70437;BME280;57877;39.750;-104.894;2023-04-03T03:32:22;82726.61;;;9.55;29.80
70437;BME280;57877;39.750;-104.894;2023-04-03T03:34:48;82721.77;;;8.87;31.15
70437;BME280;57877;39.750;-104.894;2023-04-03T03:37:14;82727.23;;;9.19;30.93
70437;BME280;57877;39.750;-104.894;2023-04-03T03:39:40;82727.45;;;8.79;31.33
70437;BME280;57877;39.750;-104.894;2023-04-03T03:42:06;82718.60;;;8.81;31.43
70437;BME280;57877;39.750;-104.894;2023-04-03T03:44:32;82719.21;;;9.08;31.05
70437;BME280;57877;39.750;-104.894;2023-04-03T03:46:58;82725.76;;;9.25;30.81
70437;BME280;57877;39.750;-104.894;2023-04-03T03:49:24;82726.67;;;8.67;31.86
70437;BME280;57877;39.750;-104.894;2023-04-03T03:51:50;82740.79;;;8.96;31.85
70437;BME280;57877;39.750;-104.894;2023-04-03T03:54:17;82749.27;;;8.64;31.59
70437;BME280;57877;39.750;-104.894;2023-04-03T03:56:42;82751.88;;;8.71;31.58
70437;BME280;57877;39.750;-104.894;2023-04-03T03:59:10;82743.88;;;8.50;31.51
70437;BME280;57877;39.750;-104.894;2023-04-03T04:01:34;82741.67;;;8.88;30.92
70437;BME280;57877;39.750;-104.894;2023-04-03T04:04:01;82745.09;;;8.45;31.46
70437;BME280;57877;39.750;-104.894;2023-04-03T04:06:26;82748.93;;;8.60;31.07
70437;BME280;57877;39.750;-104.894;2023-04-03T04:08:53;82754.95;;;8.00;31.97
70437;BME280;57877;39.750;-104.894;2023-04-03T04:11:18;82758.84;;;7.71;32.15
70437;BME280;57877;39.750;-104.894;2023-04-03T04:13:43;82770.84;;;8.44;31.20
70437;BME280;57877;39.750;-104.894;2023-04-03T04:16:09;82777.67;;;8.40;30.83
70437;BME280;57877;39.750;-104.894;2023-04-03T04:18:35;82783.50;;;8.32;30.79
70437;BME280;57877;39.750;-104.894;2023-04-03T04:21:02;82781.83;;;9.14;29.96
70437;BME280;57877;39.750;-104.894;2023-04-03T04:23:27;82786.52;;;9.09;29.64
70437;BME280;57877;39.750;-104.894;2023-04-03T04:25:53;82798.27;;;9.27;29.10
70437;BME280;57877;39.750;-104.894;2023-04-03T04:28:19;82803.31;;;9.38;28.96
70437;BME280;57877;39.750;-104.894;2023-04-03T04:30:46;82804.32;;;9.87;27.74
70437;BME280;57877;39.750;-104.894;2023-04-03T04:33:11;82810.03;;;9.81;27.49
70437;BME280;57877;39.750;-104.894;2023-04-03T04:35:37;82826.81;;;9.79;27.60
70437;BME280;57877;39.750;-104.894;2023-04-03T04:38:03;82844.54;;;9.89;27.01
70437;BME280;57877;39.750;-104.894;2023-04-03T04:40:29;82850.83;;;10.34;26.12
70437;BME280;57877;39.750;-104.894;2023-04-03T04:42:55;82851.46;;;10.57;25.90
70437;BME280;57877;39.750;-104.894;2023-04-03T04:45:20;82851.73;;;10.88;25.39
70437;BME280;57877;39.750;-104.894;2023-04-03T04:47:45;82851.69;;;10.89;25.38
70437;BME280;57877;39.750;-104.894;2023-04-03T04:50:11;82856.47;;;10.76;25.25
70437;BME280;57877;39.750;-104.894;2023-04-03T04:52:37;82858.38;;;10.63;25.54
70437;BME280;57877;39.750;-104.894;2023-04-03T04:55:03;82863.16;;;9.65;26.31
70437;BME280;57877;39.750;-104.894;2023-04-03T04:57:28;82869.25;;;10.36;25.74
70437;BME280;57877;39.750;-104.894;2023-04-03T04:59:54;82869.31;;;10.44;25.45
70437;BME280;57877;39.750;-104.894;2023-04-03T05:02:20;82869.78;;;10.14;25.42
70437;BME280;57877;39.750;-104.894;2023-04-03T05:04:46;82869.59;;;9.83;26.14
70437;BME280;57877;39.750;-104.894;2023-04-03T05:07:11;82869.64;;;10.00;26.11
70437;BME280;57877;39.750;-104.894;2023-04-03T05:09:38;82865.24;;;10.20;25.87
70437;BME280;57877;39.750;-104.894;2023-04-03T05:12:02;82860.22;;;9.44;26.84
70437;BME280;57877;39.750;-104.894;2023-04-03T05:14:27;82860.90;;;9.25;27.32
70437;BME280;57877;39.750;-104.894;2023-04-03T05:16:53;82860.61;;;8.45;27.65
70437;BME280;57877;39.750;-104.894;2023-04-03T05:19:20;82854.85;;;7.93;29.14
70437;BME280;57877;39.750;-104.894;2023-04-03T05:21:45;82852.19;;;8.42;28.71
70437;BME280;57877;39.750;-104.894;2023-04-03T05:24:12;82851.76;;;7.94;29.20
70437;BME280;57877;39.750;-104.894;2023-04-03T05:26:37;82850.44;;;8.22;29.25
70437;BME280;57877;39.750;-104.894;2023-04-03T05:29:03;82839.60;;;8.10;29.12
70437;BME280;57877;39.750;-104.894;2023-04-03T05:31:29;82840.61;;;7.65;30.05
70437;BME280;57877;39.750;-104.894;2023-04-03T05:33:56;82839.25;;;7.15;29.99
70437;BME280;57877;39.750;-104.894;2023-04-03T05:36:22;82845.64;;;7.99;29.35
70437;BME280;57877;39.750;-104.894;2023-04-03T05:38:48;82837.66;;;7.97;28.74
70437;BME280;57877;39.750;-104.894;2023-04-03T05:41:14;82836.39;;;7.56;29.39
70437;BME280;57877;39.750;-104.894;2023-04-03T05:43:40;82838.38;;;7.90;29.49
70437;BME280;57877;39.750;-104.894;2023-04-03T05:46:10;82840.44;;;7.65;29.24
70437;BME280;57877;39.750;-104.894;2023-04-03T05:48:32;82845.27;;;7.72;28.92
70437;BME280;57877;39.750;-104.894;2023-04-03T05:50:59;82846.21;;;7.57;28.74
70437;BME280;57877;39.750;-104.894;2023-04-03T05:53:27;82840.65;;;7.79;29.03
70437;BME280;57877;39.750;-104.894;2023-04-03T05:55:50;82833.18;;;7.27;29.65
70437;BME280;57877;39.750;-104.894;2023-04-03T05:58:16;82834.85;;;7.71;28.86
70437;BME280;57877;39.750;-104.894;2023-04-03T06:00:46;82833.54;;;7.23;29.43
70437;BME280;57877;39.750;-104.894;2023-04-03T06:03:07;82831.72;;;7.63;29.25
70437;BME280;57877;39.750;-104.894;2023-04-03T06:05:33;82830.96;;;7.52;29.12
70437;BME280;57877;39.750;-104.894;2023-04-03T06:07:59;82827.52;;;8.49;28.11
70437;BME280;57877;39.750;-104.894;2023-04-03T06:10:24;82821.28;;;8.30;28.16
70437;BME280;57877;39.750;-104.894;2023-04-03T06:12:50;82810.72;;;7.61;28.89
70437;BME280;57877;39.750;-104.894;2023-04-03T06:15:16;82811.94;;;7.27;29.35
70437;BME280;57877;39.750;-104.894;2023-04-03T06:17:42;82813.28;;;7.58;29.54
70437;BME280;57877;39.750;-104.894;2023-04-03T06:20:08;82817.67;;;7.62;29.29
70437;BME280;57877;39.750;-104.894;2023-04-03T06:22:34;82807.60;;;7.68;28.93
70437;BME280;57877;39.750;-104.894;2023-04-03T06:25:00;82799.67;;;7.31;29.28
70437;BME280;57877;39.750;-104.894;2023-04-03T06:27:26;82794.34;;;7.53;29.67
70437;BME280;57877;39.750;-104.894;2023-04-03T06:29:52;82796.15;;;7.33;29.38
70437;BME280;57877;39.750;-104.894;2023-04-03T06:32:18;82789.28;;;7.50;29.16
70437;BME280;57877;39.750;-104.894;2023-04-03T06:34:44;82790.84;;;7.98;28.64
70437;BME280;57877;39.750;-104.894;2023-04-03T06:37:12;82791.63;;;8.25;28.01
70437;BME280;57877;39.750;-104.894;2023-04-03T06:39:36;82794.52;;;8.01;27.87
70437;BME280;57877;39.750;-104.894;2023-04-03T06:42:02;82793.21;;;8.39;27.51
70437;BME280;57877;39.750;-104.894;2023-04-03T06:44:28;82795.50;;;8.25;27.69
70437;BME280;57877;39.750;-104.894;2023-04-03T06:46:54;82796.38;;;8.17;27.69
70437;BME280;57877;39.750;-104.894;2023-04-03T06:49:20;82794.56;;;8.02;27.87
70437;BME280;57877;39.750;-104.894;2023-04-03T06:51:46;82792.39;;;8.37;27.61
70437;BME280;57877;39.750;-104.894;2023-04-03T06:54:11;82791.80;;;7.84;27.67
70437;BME280;57877;39.750;-104.894;2023-04-03T06:56:36;82793.32;;;7.91;28.44
70437;BME280;57877;39.750;-104.894;2023-04-03T06:59:01;82791.88;;;7.69;28.66
70437;BME280;57877;39.750;-104.894;2023-04-03T07:01:28;82788.47;;;7.49;28.83
70437;BME280;57877;39.750;-104.894;2023-04-03T07:03:53;82794.33;;;7.32;28.71
70437;BME280;57877;39.750;-104.894;2023-04-03T07:06:19;82791.03;;;7.69;28.49
70437;BME280;57877;39.750;-104.894;2023-04-03T07:08:45;82787.52;;;7.35;28.70
70437;BME280;57877;39.750;-104.894;2023-04-03T07:11:11;82782.74;;;7.63;28.69
70437;BME280;57877;39.750;-104.894;2023-04-03T07:13:37;82779.03;;;7.44;28.70
70437;BME280;57877;39.750;-104.894;2023-04-03T07:16:02;82776.26;;;7.34;28.85
70437;BME280;57877;39.750;-104.894;2023-04-03T07:18:28;82774.19;;;7.01;29.22
70437;BME280;57877;39.750;-104.894;2023-04-03T07:20:54;82768.21;;;7.20;29.26
70437;BME280;57877;39.750;-104.894;2023-04-03T07:23:20;82773.53;;;6.94;29.28
70437;BME280;57877;39.750;-104.894;2023-04-03T07:25:48;82776.67;;;7.37;29.14
70437;BME280;57877;39.750;-104.894;2023-04-03T07:28:12;82773.76;;;7.13;29.12
70437;BME280;57877;39.750;-104.894;2023-04-03T07:30:42;82768.31;;;7.17;29.27
70437;BME280;57877;39.750;-104.894;2023-04-03T07:33:03;82769.93;;;7.34;28.97
70437;BME280;57877;39.750;-104.894;2023-04-03T07:35:29;82769.05;;;6.97;29.16
70437;BME280;57877;39.750;-104.894;2023-04-03T07:37:54;82765.29;;;7.01;29.63
70437;BME280;57877;39.750;-104.894;2023-04-03T07:40:20;82760.79;;;6.87;29.83
70437;BME280;57877;39.750;-104.894;2023-04-03T07:42:46;82758.09;;;6.65;30.00
70437;BME280;57877;39.750;-104.894;2023-04-03T07:45:12;82758.29;;;6.87;29.58
70437;BME280;57877;39.750;-104.894;2023-04-03T07:47:38;82757.11;;;6.76;30.03
70437;BME280;57877;39.750;-104.894;2023-04-03T07:50:04;82756.66;;;6.75;29.74
70437;BME280;57877;39.750;-104.894;2023-04-03T07:52:29;82750.16;;;6.81;29.56
70437;BME280;57877;39.750;-104.894;2023-04-03T07:54:54;82747.55;;;7.07;29.08
70437;BME280;57877;39.750;-104.894;2023-04-03T07:57:20;82751.92;;;6.91;29.18
70437;BME280;57877;39.750;-104.894;2023-04-03T07:59:45;82751.13;;;6.93;29.11
70437;BME280;57877;39.750;-104.894;2023-04-03T08:02:11;82747.78;;;6.66;29.51
70437;BME280;57877;39.750;-104.894;2023-04-03T08:04:36;82745.62;;;6.36;30.12
70437;BME280;57877;39.750;-104.894;2023-04-03T08:07:00;82742.39;;;6.56;29.68
70437;BME280;57877;39.750;-104.894;2023-04-03T08:09:26;82736.49;;;6.43;29.89
70437;BME280;57877;39.750;-104.894;2023-04-03T08:11:51;82731.12;;;6.83;29.44
70437;BME280;57877;39.750;-104.894;2023-04-03T08:14:17;82727.94;;;6.43;30.18
70437;BME280;57877;39.750;-104.894;2023-04-03T08:16:44;82723.68;;;6.28;30.07
70437;BME280;57877;39.750;-104.894;2023-04-03T08:19:09;82717.69;;;6.89;29.71
70437;BME280;57877;39.750;-104.894;2023-04-03T08:21:35;82717.37;;;6.88;29.70
70437;BME280;57877;39.750;-104.894;2023-04-03T08:24:01;82716.97;;;6.42;29.97
70437;BME280;57877;39.750;-104.894;2023-04-03T08:26:27;82717.94;;;6.29;30.26
70437;BME280;57877;39.750;-104.894;2023-04-03T08:28:53;82709.82;;;6.59;30.05
70437;BME280;57877;39.750;-104.894;2023-04-03T08:31:20;82705.60;;;6.73;29.97
70437;BME280;57877;39.750;-104.894;2023-04-03T08:33:44;82711.11;;;6.11;30.81
70437;BME280;57877;39.750;-104.894;2023-04-03T08:36:18;82706.04;;;5.72;30.88
70437;BME280;57877;39.750;-104.894;2023-04-03T08:38:34;82695.34;;;5.90;30.78
70437;BME280;57877;39.750;-104.894;2023-04-03T08:41:04;82696.47;;;6.21;30.45
70437;BME280;57877;39.750;-104.894;2023-04-03T08:43:33;82700.07;;;6.24;30.40
70437;BME280;57877;39.750;-104.894;2023-04-03T08:45:52;82699.05;;;5.95;30.83
70437;BME280;57877;39.750;-104.894;2023-04-03T08:48:17;82699.33;;;6.05;30.34
70437;BME280;57877;39.750;-104.894;2023-04-03T08:50:41;82693.97;;;5.74;30.60
70437;BME280;57877;39.750;-104.894;2023-04-03T08:53:05;82694.91;;;5.63;30.54
70437;BME280;57877;39.750;-104.894;2023-04-03T08:55:32;82694.41;;;5.78;30.35
70437;BME280;57877;39.750;-104.894;2023-04-03T08:58:00;82691.32;;;5.69;30.43
70437;BME280;57877;39.750;-104.894;2023-04-03T09:00:22;82692.85;;;5.83;30.15
70437;BME280;57877;39.750;-104.894;2023-04-03T09:02:46;82692.49;;;5.70;30.29
70437;BME280;57877;39.750;-104.894;2023-04-03T09:05:14;82688.96;;;5.31;30.69
70437;BME280;57877;39.750;-104.894;2023-04-03T09:07:42;82685.94;;;5.31;31.06
70437;BME280;57877;39.750;-104.894;2023-04-03T09:10:01;82686.72;;;5.92;30.97
70437;BME280;57877;39.750;-104.894;2023-04-03T09:12:27;82692.85;;;5.66;30.97
70437;BME280;57877;39.750;-104.894;2023-04-03T09:14:58;82692.94;;;4.86;32.09
70437;BME280;57877;39.750;-104.894;2023-04-03T09:17:21;82696.59;;;4.97;31.97
70437;BME280;57877;39.750;-104.894;2023-04-03T09:19:47;82700.28;;;4.78;32.24
70437;BME280;57877;39.750;-104.894;2023-04-03T09:22:16;82692.26;;;4.89;32.54
70437;BME280;57877;39.750;-104.894;2023-04-03T09:24:32;82690.40;;;4.56;32.79
70437;BME280;57877;39.750;-104.894;2023-04-03T09:26:58;82686.70;;;4.01;33.97
70437;BME280;57877;39.750;-104.894;2023-04-03T09:29:26;82686.18;;;4.02;34.47
70437;BME280;57877;39.750;-104.894;2023-04-03T09:31:49;82683.28;;;4.09;34.34
70437;BME280;57877;39.750;-104.894;2023-04-03T09:34:20;82684.38;;;4.16;34.42
70437;BME280;57877;39.750;-104.894;2023-04-03T09:36:43;82680.68;;;4.12;34.18
70437;BME280;57877;39.750;-104.894;2023-04-03T09:39:04;82683.88;;;4.20;34.24
70437;BME280;57877;39.750;-104.894;2023-04-03T09:41:29;82682.49;;;4.42;33.97
70437;BME280;57877;39.750;-104.894;2023-04-03T09:43:54;82683.62;;;4.67;33.66
70437;BME280;57877;39.750;-104.894;2023-04-03T09:46:26;82680.18;;;4.08;34.44
70437;BME280;57877;39.750;-104.894;2023-04-03T09:48:52;82682.23;;;4.28;34.02
70437;BME280;57877;39.750;-104.894;2023-04-03T09:51:14;82682.88;;;4.14;34.16
70437;BME280;57877;39.750;-104.894;2023-04-03T09:53:37;82671.57;;;4.42;33.75
70437;BME280;57877;39.750;-104.894;2023-04-03T09:56:01;82665.85;;;4.98;32.86
70437;BME280;57877;39.750;-104.894;2023-04-03T09:58:27;82665.90;;;4.49;33.26
70437;BME280;57877;39.750;-104.894;2023-04-03T10:00:55;82668.53;;;4.36;33.42
70437;BME280;57877;39.750;-104.894;2023-04-03T10:03:23;82669.29;;;4.30;33.85
70437;BME280;57877;39.750;-104.894;2023-04-03T10:05:42;82671.78;;;3.76;34.62
70437;BME280;57877;39.750;-104.894;2023-04-03T10:10:31;82675.77;;;4.46;33.25
70437;BME280;57877;39.750;-104.894;2023-04-03T10:13:05;82672.93;;;4.35;33.84
70437;BME280;57877;39.750;-104.894;2023-04-03T10:15:21;82668.43;;;4.22;34.00
70437;BME280;57877;39.750;-104.894;2023-04-03T10:17:53;82668.05;;;4.48;33.59
70437;BME280;57877;39.750;-104.894;2023-04-03T10:20:21;82665.40;;;4.17;33.28
70437;BME280;57877;39.750;-104.894;2023-04-03T10:22:42;82662.76;;;4.90;32.70
70437;BME280;57877;39.750;-104.894;2023-04-03T10:25:07;82662.18;;;4.66;32.71
70437;BME280;57877;39.750;-104.894;2023-04-03T10:27:35;82668.21;;;4.46;32.92
70437;BME280;57877;39.750;-104.894;2023-04-03T10:29:56;82663.56;;;5.03;32.56
70437;BME280;57877;39.750;-104.894;2023-04-03T10:32:31;82667.84;;;4.57;33.11
70437;BME280;57877;39.750;-104.894;2023-04-03T10:34:44;82663.92;;;4.74;32.63
70437;BME280;57877;39.750;-104.894;2023-04-03T10:37:13;82662.06;;;4.76;32.54
70437;BME280;57877;39.750;-104.894;2023-04-03T10:39:36;82667.20;;;4.90;32.02
70437;BME280;57877;39.750;-104.894;2023-04-03T10:42:03;82667.05;;;5.09;32.14
70437;BME280;57877;39.750;-104.894;2023-04-03T10:44:29;82670.35;;;4.96;32.09
70437;BME280;57877;39.750;-104.894;2023-04-03T10:46:50;82670.62;;;5.27;31.83
70437;BME280;57877;39.750;-104.894;2023-04-03T10:49:21;82669.59;;;5.50;31.53
70437;BME280;57877;39.750;-104.894;2023-04-03T10:51:41;82668.15;;;5.20;31.55
70437;BME280;57877;39.750;-104.894;2023-04-03T10:54:08;82669.62;;;5.04;31.38
70437;BME280;57877;39.750;-104.894;2023-04-03T10:56:32;82672.17;;;5.47;30.70
70437;BME280;57877;39.750;-104.894;2023-04-03T10:58:54;82676.60;;;5.54;30.56
70437;BME280;57877;39.750;-104.894;2023-04-03T11:01:21;82673.82;;;5.29;30.93
70437;BME280;57877;39.750;-104.894;2023-04-03T11:03:45;82668.41;;;5.18;31.14
70437;BME280;57877;39.750;-104.894;2023-04-03T11:06:11;82670.25;;;5.52;30.51
70437;BME280;57877;39.750;-104.894;2023-04-03T11:08:36;82673.18;;;5.38;30.33
70437;BME280;57877;39.750;-104.894;2023-04-03T11:11:02;82671.62;;;5.49;30.35
70437;BME280;57877;39.750;-104.894;2023-04-03T11:13:28;82671.35;;;5.50;30.38
70437;BME280;57877;39.750;-104.894;2023-04-03T11:15:49;82672.27;;;5.62;30.16
70437;BME280;57877;39.750;-104.894;2023-04-03T11:18:17;82675.89;;;5.54;30.18
70437;BME280;57877;39.750;-104.894;2023-04-03T11:20:43;82676.37;;;5.47;30.20
70437;BME280;57877;39.750;-104.894;2023-04-03T11:23:08;82674.62;;;5.40;30.30
70437;BME280;57877;39.750;-104.894;2023-04-03T11:25:31;82670.39;;;5.42;30.21
70437;BME280;57877;39.750;-104.894;2023-04-03T11:27:56;82668.78;;;5.42;30.28
70437;BME280;57877;39.750;-104.894;2023-04-03T11:30:22;82670.64;;;5.25;30.07
70437;BME280;57877;39.750;-104.894;2023-04-03T11:32:52;82670.16;;;5.40;30.04
70437;BME280;57877;39.750;-104.894;2023-04-03T11:35:10;82668.33;;;5.29;30.37
70437;BME280;57877;39.750;-104.894;2023-04-03T11:37:38;82671.23;;;4.67;30.74
70437;BME280;57877;39.750;-104.894;2023-04-03T11:40:04;82672.02;;;4.88;30.71
70437;BME280;57877;39.750;-104.894;2023-04-03T11:42:33;82669.22;;;5.03;30.49
70437;BME280;57877;39.750;-104.894;2023-04-03T11:44:51;82668.42;;;4.97;30.55
70437;BME280;57877;39.750;-104.894;2023-04-03T11:52:10;82663.17;;;5.17;30.78
70437;BME280;57877;39.750;-104.894;2023-04-03T11:54:36;82664.49;;;5.12;30.80
70437;BME280;57877;39.750;-104.894;2023-04-03T11:56:56;82662.88;;;5.08;30.57
70437;BME280;57877;39.750;-104.894;2023-04-03T11:59:24;82655.86;;;4.66;30.69
70437;BME280;57877;39.750;-104.894;2023-04-03T12:01:48;82654.79;;;4.46;31.32
70437;BME280;57877;39.750;-104.894;2023-04-03T12:04:13;82656.30;;;4.38;31.71
70437;BME280;57877;39.750;-104.894;2023-04-03T12:06:51;82653.15;;;4.48;31.63
70437;BME280;57877;39.750;-104.894;2023-04-03T12:09:01;82654.85;;;4.66;31.53
70437;BME280;57877;39.750;-104.894;2023-04-03T12:11:30;82662.19;;;4.84;31.36
70437;BME280;57877;39.750;-104.894;2023-04-03T12:16:21;82661.38;;;4.41;31.50
70437;BME280;57877;39.750;-104.894;2023-04-03T12:18:44;82658.03;;;4.45;31.44
70437;BME280;57877;39.750;-104.894;2023-04-03T12:21:06;82662.79;;;4.63;31.63
70437;BME280;57877;39.750;-104.894;2023-04-03T12:26:04;82670.62;;;4.08;32.26
70437;BME280;57877;39.750;-104.894;2023-04-03T12:28:22;82673.79;;;4.13;32.10
70437;BME280;57877;39.750;-104.894;2023-04-03T12:30:47;82672.85;;;3.96;32.37
70437;BME280;57877;39.750;-104.894;2023-04-03T12:33:24;82671.59;;;4.19;32.08
70437;BME280;57877;39.750;-104.894;2023-04-03T12:35:43;82668.09;;;4.24;31.95
70437;BME280;57877;39.750;-104.894;2023-04-03T12:40:33;82665.70;;;4.03;32.48
70437;BME280;57877;39.750;-104.894;2023-04-03T12:43:07;82662.39;;;3.89;32.71
70437;BME280;57877;39.750;-104.894;2023-04-03T12:45:20;82662.23;;;4.13;32.57